sensor_id;sensor_type;location;lat;lon;timestamp;temperature;humidity
6538;DHT22;3302;52.508;13.454;2022-11-23T00:01:36;1.20;99.90
6538;DHT22;3302;52.508;13.454;2022-11-23T00:04:04;1.10;99.90
6538;DHT22;3302;52.508;13.454;2022-11-23T00:06:30;1.20;99.90
6538;DHT22;3302;52.508;13.454;2022-11-23T00:08:57;1.30;99.90
6538;DHT22;3302;52.508;13.454;2022-11-23T00:11:24;1.30;99.90
6538;DHT22;3302;52.508;13.454;2022-11-23T00:13:50;1.30;99.90
6538;DHT22;3302;52.508;13.454;2022-11-23T00:16:21;1.40;99.90
6538;DHT22;3302;52.508;13.454;2022-11-23T00:18:47;1.20;99.90
6538;DHT22;3302;52.508;13.454;2022-11-23T00:21:16;1.10;99.90
6538;DHT22;3302;52.508;13.454;2022-11-23T00:23:43;1.10;99.90
6538;DHT22;3302;52.508;13.454;2022-11-23T00:26:09;1.10;99.90
6538;DHT22;3302;52.508;13.454;2022-11-23T00:28:35;1.10;99.90
6538;DHT22;3302;52.508;13.454;2022-11-23T00:31:05;1.20;99.90
6538;DHT22;3302;52.508;13.454;2022-11-23T00:33:32;1.20;99.90
6538;DHT22;3302;52.508;13.454;2022-11-23T00:36:18;1.10;99.90
6538;DHT22;3302;52.508;13.454;2022-11-23T00:38:45;1.10;99.90
6538;DHT22;3302;52.508;13.454;2022-11-23T00:41:17;1.10;99.90
6538;DHT22;3302;52.508;13.454;2022-11-23T00:43:44;1.10;99.90
6538;DHT22;3302;52.508;13.454;2022-11-23T00:46:14;1.10;99.90
6538;DHT22;3302;52.508;13.454;2022-11-23T00:48:43;1.20;99.90
6538;DHT22;3302;52.508;13.454;2022-11-23T00:51:12;1.10;99.90
6538;DHT22;3302;52.508;13.454;2022-11-23T00:53:38;1.10;99.90
6538;DHT22;3302;52.508;13.454;2022-11-23T00:56:04;1.10;99.90
6538;DHT22;3302;52.508;13.454;2022-11-23T00:58:31;1.10;99.90
6538;DHT22;3302;52.508;13.454;2022-11-23T01:01:11;1.10;99.90
6538;DHT22;3302;52.508;13.454;2022-11-23T01:03:43;1.10;99.90
6538;DHT22;3302;52.508;13.454;2022-11-23T01:06:18;1.10;99.90
6538;DHT22;3302;52.508;13.454;2022-11-23T01:08:49;1.10;99.90
6538;DHT22;3302;52.508;13.454;2022-11-23T01:11:16;1.20;99.90
6538;DHT22;3302;52.508;13.454;2022-11-23T01:13:41;1.20;99.90
6538;DHT22;3302;52.508;13.454;2022-11-23T01:16:13;1.10;99.90
6538;DHT22;3302;52.508;13.454;2022-11-23T01:18:39;1.10;99.90
6538;DHT22;3302;52.508;13.454;2022-11-23T01:21:05;1.20;99.90
6538;DHT22;3302;52.508;13.454;2022-11-23T01:23:31;1.20;99.90
6538;DHT22;3302;52.508;13.454;2022-11-23T01:25:56;1.10;99.90
6538;DHT22;3302;52.508;13.454;2022-11-23T01:28:22;1.10;99.90
6538;DHT22;3302;52.508;13.454;2022-11-23T01:30:48;1.10;99.90
6538;DHT22;3302;52.508;13.454;2022-11-23T01:33:14;1.10;99.90
6538;DHT22;3302;52.508;13.454;2022-11-23T01:35:40;1.10;99.90
6538;DHT22;3302;52.508;13.454;2022-11-23T01:38:05;1.20;99.90
6538;DHT22;3302;52.508;13.454;2022-11-23T01:40:39;1.20;99.90
6538;DHT22;3302;52.508;13.454;2022-11-23T01:43:09;1.10;99.90
6538;DHT22;3302;52.508;13.454;2022-11-23T01:45:55;1.10;99.90
6538;DHT22;3302;52.508;13.454;2022-11-23T01:48:25;1.10;99.90
6538;DHT22;3302;52.508;13.454;2022-11-23T01:50:52;1.10;99.90
6538;DHT22;3302;52.508;13.454;2022-11-23T01:53:19;1.10;99.90
6538;DHT22;3302;52.508;13.454;2022-11-23T01:55:47;1.10;99.90
6538;DHT22;3302;52.508;13.454;2022-11-23T01:58:17;1.10;99.90
6538;DHT22;3302;52.508;13.454;2022-11-23T02:00:43;1.10;99.90
6538;DHT22;3302;52.508;13.454;2022-11-23T02:03:10;1.20;99.90
6538;DHT22;3302;52.508;13.454;2022-11-23T02:05:42;1.20;99.90
6538;DHT22;3302;52.508;13.454;2022-11-23T02:08:10;1.20;99.90
6538;DHT22;3302;52.508;13.454;2022-11-23T02:10:37;1.20;99.90
6538;DHT22;3302;52.508;13.454;2022-11-23T02:13:09;1.20;99.90
6538;DHT22;3302;52.508;13.454;2022-11-23T02:15:35;1.20;99.90
6538;DHT22;3302;52.508;13.454;2022-11-23T02:18:09;1.20;99.90
6538;DHT22;3302;52.508;13.454;2022-11-23T02:20:36;1.20;99.90
6538;DHT22;3302;52.508;13.454;2022-11-23T02:28:26;1.30;99.90
6538;DHT22;3302;52.508;13.454;2022-11-23T02:30:54;1.30;99.90
6538;DHT22;3302;52.508;13.454;2022-11-23T02:33:20;1.30;99.90
6538;DHT22;3302;52.508;13.454;2022-11-23T02:35:52;1.30;99.90
6538;DHT22;3302;52.508;13.454;2022-11-23T02:38:18;1.30;99.90
6538;DHT22;3302;52.508;13.454;2022-11-23T02:40:44;1.30;99.90
6538;DHT22;3302;52.508;13.454;2022-11-23T02:43:10;1.30;99.90
6538;DHT22;3302;52.508;13.454;2022-11-23T02:45:56;1.30;99.90
6538;DHT22;3302;52.508;13.454;2022-11-23T02:48:24;1.40;99.90
6538;DHT22;3302;52.508;13.454;2022-11-23T02:50:50;1.30;99.90
6538;DHT22;3302;52.508;13.454;2022-11-23T02:53:17;1.40;99.90
6538;DHT22;3302;52.508;13.454;2022-11-23T02:55:43;1.30;99.90
6538;DHT22;3302;52.508;13.454;2022-11-23T02:58:09;1.30;99.90
6538;DHT22;3302;52.508;13.454;2022-11-23T03:00:35;1.30;99.90
6538;DHT22;3302;52.508;13.454;2022-11-23T03:03:01;1.40;99.90
6538;DHT22;3302;52.508;13.454;2022-11-23T03:05:28;1.40;99.90
6538;DHT22;3302;52.508;13.454;2022-11-23T03:07:54;1.40;99.90
6538;DHT22;3302;52.508;13.454;2022-11-23T03:10:19;1.40;99.90
6538;DHT22;3302;52.508;13.454;2022-11-23T03:12:46;1.40;99.90
6538;DHT22;3302;52.508;13.454;2022-11-23T03:15:12;1.40;99.90
6538;DHT22;3302;52.508;13.454;2022-11-23T03:17:38;1.30;99.90
6538;DHT22;3302;52.508;13.454;2022-11-23T03:20:04;1.30;99.90
6538;DHT22;3302;52.508;13.454;2022-11-23T03:22:30;1.30;99.90
6538;DHT22;3302;52.508;13.454;2022-11-23T03:24:56;1.30;99.90
6538;DHT22;3302;52.508;13.454;2022-11-23T03:27:22;1.20;99.90
6538;DHT22;3302;52.508;13.454;2022-11-23T03:29:48;1.20;99.90
6538;DHT22;3302;52.508;13.454;2022-11-23T03:32:14;1.20;99.90
6538;DHT22;3302;52.508;13.454;2022-11-23T03:34:40;1.20;99.90
6538;DHT22;3302;52.508;13.454;2022-11-23T03:37:05;1.10;99.90
6538;DHT22;3302;52.508;13.454;2022-11-23T03:39:31;1.10;99.90
6538;DHT22;3302;52.508;13.454;2022-11-23T03:41:57;1.20;99.90
6538;DHT22;3302;52.508;13.454;2022-11-23T03:44:23;1.10;99.90
6538;DHT22;3302;52.508;13.454;2022-11-23T03:46:48;1.10;99.90
6538;DHT22;3302;52.508;13.454;2022-11-23T03:49:17;1.10;99.90
6538;DHT22;3302;52.508;13.454;2022-11-23T03:51:43;1.10;99.90
6538;DHT22;3302;52.508;13.454;2022-11-23T03:54:09;1.10;99.90
6538;DHT22;3302;52.508;13.454;2022-11-23T03:56:34;1.10;99.90
6538;DHT22;3302;52.508;13.454;2022-11-23T03:59:00;1.10;99.90
6538;DHT22;3302;52.508;13.454;2022-11-23T04:01:26;1.10;99.90
6538;DHT22;3302;52.508;13.454;2022-11-23T04:03:52;1.00;99.90
6538;DHT22;3302;52.508;13.454;2022-11-23T04:06:18;1.00;99.90
6538;DHT22;3302;52.508;13.454;2022-11-23T04:08:43;1.00;99.90
6538;DHT22;3302;52.508;13.454;2022-11-23T04:11:10;1.00;99.90
6538;DHT22;3302;52.508;13.454;2022-11-23T04:13:35;1.00;99.90
6538;DHT22;3302;52.508;13.454;2022-11-23T04:16:01;1.00;99.90
6538;DHT22;3302;52.508;13.454;2022-11-23T04:18:27;1.00;99.90
6538;DHT22;3302;52.508;13.454;2022-11-23T04:20:53;1.00;99.90
6538;DHT22;3302;52.508;13.454;2022-11-23T04:23:18;1.00;99.90
6538;DHT22;3302;52.508;13.454;2022-11-23T04:25:45;1.00;99.90
6538;DHT22;3302;52.508;13.454;2022-11-23T04:28:10;1.00;99.90
6538;DHT22;3302;52.508;13.454;2022-11-23T04:30:36;1.00;99.90
6538;DHT22;3302;52.508;13.454;2022-11-23T04:33:02;1.10;99.90
6538;DHT22;3302;52.508;13.454;2022-11-23T04:35:28;1.00;99.90
6538;DHT22;3302;52.508;13.454;2022-11-23T04:37:53;1.00;99.90
6538;DHT22;3302;52.508;13.454;2022-11-23T04:40:19;1.00;99.90
6538;DHT22;3302;52.508;13.454;2022-11-23T04:42:45;1.00;99.90
6538;DHT22;3302;52.508;13.454;2022-11-23T04:45:11;1.00;99.90
6538;DHT22;3302;52.508;13.454;2022-11-23T04:47:37;0.90;99.90
6538;DHT22;3302;52.508;13.454;2022-11-23T04:50:03;1.00;99.90
6538;DHT22;3302;52.508;13.454;2022-11-23T04:52:29;0.90;99.90
6538;DHT22;3302;52.508;13.454;2022-11-23T04:54:54;0.90;99.90
6538;DHT22;3302;52.508;13.454;2022-11-23T04:57:20;0.90;99.90
6538;DHT22;3302;52.508;13.454;2022-11-23T04:59:46;1.00;99.90
6538;DHT22;3302;52.508;13.454;2022-11-23T05:02:12;0.90;99.90
6538;DHT22;3302;52.508;13.454;2022-11-23T05:04:37;0.90;99.90
6538;DHT22;3302;52.508;13.454;2022-11-23T05:07:03;0.90;99.90
6538;DHT22;3302;52.508;13.454;2022-11-23T05:09:29;0.80;99.90
6538;DHT22;3302;52.508;13.454;2022-11-23T05:11:55;0.90;99.90
6538;DHT22;3302;52.508;13.454;2022-11-23T05:14:20;0.80;99.90
6538;DHT22;3302;52.508;13.454;2022-11-23T05:16:46;0.90;99.90
6538;DHT22;3302;52.508;13.454;2022-11-23T05:19:12;0.90;99.90
6538;DHT22;3302;52.508;13.454;2022-11-23T05:21:38;0.90;99.90
6538;DHT22;3302;52.508;13.454;2022-11-23T05:24:03;0.90;99.90
6538;DHT22;3302;52.508;13.454;2022-11-23T05:26:29;0.90;99.90
6538;DHT22;3302;52.508;13.454;2022-11-23T05:28:55;0.90;99.90
6538;DHT22;3302;52.508;13.454;2022-11-23T05:31:21;1.00;99.90
6538;DHT22;3302;52.508;13.454;2022-11-23T05:33:46;0.90;99.90
6538;DHT22;3302;52.508;13.454;2022-11-23T05:36:12;0.90;99.90
6538;DHT22;3302;52.508;13.454;2022-11-23T05:38:38;0.90;99.90
6538;DHT22;3302;52.508;13.454;2022-11-23T05:41:06;1.00;99.90
6538;DHT22;3302;52.508;13.454;2022-11-23T05:43:31;1.00;99.90
6538;DHT22;3302;52.508;13.454;2022-11-23T05:45:58;1.00;99.90
6538;DHT22;3302;52.508;13.454;2022-11-23T05:48:25;1.00;99.90
6538;DHT22;3302;52.508;13.454;2022-11-23T05:50:50;1.10;99.90
6538;DHT22;3302;52.508;13.454;2022-11-23T05:53:16;1.10;99.90
6538;DHT22;3302;52.508;13.454;2022-11-23T05:55:42;1.10;99.90
6538;DHT22;3302;52.508;13.454;2022-11-23T05:58:08;1.10;99.90
6538;DHT22;3302;52.508;13.454;2022-11-23T06:00:34;1.10;99.90
6538;DHT22;3302;52.508;13.454;2022-11-23T06:03:00;1.10;99.90
6538;DHT22;3302;52.508;13.454;2022-11-23T06:05:27;1.10;99.90
6538;DHT22;3302;52.508;13.454;2022-11-23T06:07:53;1.10;99.90
6538;DHT22;3302;52.508;13.454;2022-11-23T06:10:19;1.10;99.90
6538;DHT22;3302;52.508;13.454;2022-11-23T06:12:44;1.10;99.90
6538;DHT22;3302;52.508;13.454;2022-11-23T06:15:11;1.20;99.90
6538;DHT22;3302;52.508;13.454;2022-11-23T06:17:37;1.10;99.90
6538;DHT22;3302;52.508;13.454;2022-11-23T06:20:04;1.10;99.90
6538;DHT22;3302;52.508;13.454;2022-11-23T06:22:30;1.10;99.90
6538;DHT22;3302;52.508;13.454;2022-11-23T06:24:56;1.10;99.90
6538;DHT22;3302;52.508;13.454;2022-11-23T06:27:22;1.10;99.90
6538;DHT22;3302;52.508;13.454;2022-11-23T06:29:48;1.10;99.90
6538;DHT22;3302;52.508;13.454;2022-11-23T06:32:14;1.10;99.90
6538;DHT22;3302;52.508;13.454;2022-11-23T06:34:40;1.10;99.90
6538;DHT22;3302;52.508;13.454;2022-11-23T06:37:05;1.10;99.90
6538;DHT22;3302;52.508;13.454;2022-11-23T06:39:31;1.10;99.90
6538;DHT22;3302;52.508;13.454;2022-11-23T06:41:57;1.10;99.90
6538;DHT22;3302;52.508;13.454;2022-11-23T06:44:23;1.00;99.90
6538;DHT22;3302;52.508;13.454;2022-11-23T06:46:49;1.00;99.90
6538;DHT22;3302;52.508;13.454;2022-11-23T06:49:14;1.00;99.90
6538;DHT22;3302;52.508;13.454;2022-11-23T06:51:41;1.00;99.90
6538;DHT22;3302;52.508;13.454;2022-11-23T06:54:07;1.10;99.90
6538;DHT22;3302;52.508;13.454;2022-11-23T06:56:33;1.10;99.90
6538;DHT22;3302;52.508;13.454;2022-11-23T06:58:59;1.10;99.90
6538;DHT22;3302;52.508;13.454;2022-11-23T07:01:25;1.00;99.90
6538;DHT22;3302;52.508;13.454;2022-11-23T07:03:50;1.00;99.90
6538;DHT22;3302;52.508;13.454;2022-11-23T07:06:16;1.00;99.90
6538;DHT22;3302;52.508;13.454;2022-11-23T07:08:42;1.00;99.90
6538;DHT22;3302;52.508;13.454;2022-11-23T07:11:10;1.10;99.90
6538;DHT22;3302;52.508;13.454;2022-11-23T07:13:36;1.10;99.90
6538;DHT22;3302;52.508;13.454;2022-11-23T07:16:02;1.10;99.90
6538;DHT22;3302;52.508;13.454;2022-11-23T07:18:28;1.10;99.90
6538;DHT22;3302;52.508;13.454;2022-11-23T07:20:56;1.10;99.90
6538;DHT22;3302;52.508;13.454;2022-11-23T07:23:23;1.10;99.90
6538;DHT22;3302;52.508;13.454;2022-11-23T07:25:48;1.10;99.90
6538;DHT22;3302;52.508;13.454;2022-11-23T07:28:14;1.00;99.90
6538;DHT22;3302;52.508;13.454;2022-11-23T07:30:41;1.00;99.90
6538;DHT22;3302;52.508;13.454;2022-11-23T07:33:08;1.00;99.90
6538;DHT22;3302;52.508;13.454;2022-11-23T07:35:35;1.00;99.90
6538;DHT22;3302;52.508;13.454;2022-11-23T07:38:02;0.90;99.90
6538;DHT22;3302;52.508;13.454;2022-11-23T07:40:28;0.90;99.90
6538;DHT22;3302;52.508;13.454;2022-11-23T07:43:01;0.90;99.90
6538;DHT22;3302;52.508;13.454;2022-11-23T07:45:28;0.90;99.90
6538;DHT22;3302;52.508;13.454;2022-11-23T07:47:58;0.90;99.90
6538;DHT22;3302;52.508;13.454;2022-11-23T07:50:24;0.90;99.90
6538;DHT22;3302;52.508;13.454;2022-11-23T07:52:50;0.90;99.90
6538;DHT22;3302;52.508;13.454;2022-11-23T07:55:16;1.00;99.90
6538;DHT22;3302;52.508;13.454;2022-11-23T07:57:42;0.90;99.90
6538;DHT22;3302;52.508;13.454;2022-11-23T08:00:08;1.00;99.90
6538;DHT22;3302;52.508;13.454;2022-11-23T08:02:34;1.00;99.90
6538;DHT22;3302;52.508;13.454;2022-11-23T08:05:00;1.00;99.90
6538;DHT22;3302;52.508;13.454;2022-11-23T08:07:26;1.10;99.90
6538;DHT22;3302;52.508;13.454;2022-11-23T08:09:52;1.10;99.90
6538;DHT22;3302;52.508;13.454;2022-11-23T08:12:18;1.10;99.90
6538;DHT22;3302;52.508;13.454;2022-11-23T08:14:43;1.20;99.90
6538;DHT22;3302;52.508;13.454;2022-11-23T08:17:09;1.20;99.90
6538;DHT22;3302;52.508;13.454;2022-11-23T08:19:35;1.20;99.90
6538;DHT22;3302;52.508;13.454;2022-11-23T08:22:00;1.20;99.90
6538;DHT22;3302;52.508;13.454;2022-11-23T08:24:26;1.10;99.90
6538;DHT22;3302;52.508;13.454;2022-11-23T08:26:52;1.20;99.90
6538;DHT22;3302;52.508;13.454;2022-11-23T08:29:18;1.20;99.90
6538;DHT22;3302;52.508;13.454;2022-11-23T08:31:44;1.30;99.90
6538;DHT22;3302;52.508;13.454;2022-11-23T08:34:09;1.40;99.90
6538;DHT22;3302;52.508;13.454;2022-11-23T08:36:36;1.40;99.90
6538;DHT22;3302;52.508;13.454;2022-11-23T08:39:02;1.40;99.90
6538;DHT22;3302;52.508;13.454;2022-11-23T08:41:28;1.40;99.90
6538;DHT22;3302;52.508;13.454;2022-11-23T08:43:53;1.50;99.90
6538;DHT22;3302;52.508;13.454;2022-11-23T08:46:19;1.50;99.90
6538;DHT22;3302;52.508;13.454;2022-11-23T08:48:45;1.50;99.90
6538;DHT22;3302;52.508;13.454;2022-11-23T08:51:11;1.50;99.90
6538;DHT22;3302;52.508;13.454;2022-11-23T08:53:37;1.60;99.90
6538;DHT22;3302;52.508;13.454;2022-11-23T08:56:05;1.70;99.90
6538;DHT22;3302;52.508;13.454;2022-11-23T08:58:31;1.70;99.90
6538;DHT22;3302;52.508;13.454;2022-11-23T09:00:57;1.80;99.90
6538;DHT22;3302;52.508;13.454;2022-11-23T09:03:23;1.80;99.90
6538;DHT22;3302;52.508;13.454;2022-11-23T09:05:48;1.90;99.90
6538;DHT22;3302;52.508;13.454;2022-11-23T09:08:16;1.90;99.90
6538;DHT22;3302;52.508;13.454;2022-11-23T09:10:42;2.00;99.90
6538;DHT22;3302;52.508;13.454;2022-11-23T09:13:08;2.00;99.90
6538;DHT22;3302;52.508;13.454;2022-11-23T09:15:34;2.10;99.90
6538;DHT22;3302;52.508;13.454;2022-11-23T09:17:59;2.10;99.90
6538;DHT22;3302;52.508;13.454;2022-11-23T09:20:25;2.20;99.90
6538;DHT22;3302;52.508;13.454;2022-11-23T09:22:52;2.30;99.90
6538;DHT22;3302;52.508;13.454;2022-11-23T09:25:19;2.30;99.90
6538;DHT22;3302;52.508;13.454;2022-11-23T09:27:45;2.30;99.90
6538;DHT22;3302;52.508;13.454;2022-11-23T09:30:11;2.40;99.90
6538;DHT22;3302;52.508;13.454;2022-11-23T09:32:37;2.50;99.90
6538;DHT22;3302;52.508;13.454;2022-11-23T09:35:04;2.60;99.90
6538;DHT22;3302;52.508;13.454;2022-11-23T09:37:30;2.60;99.90
6538;DHT22;3302;52.508;13.454;2022-11-23T09:39:56;2.60;99.90
6538;DHT22;3302;52.508;13.454;2022-11-23T09:42:56;2.80;99.90
6538;DHT22;3302;52.508;13.454;2022-11-23T09:45:50;2.90;99.90
6538;DHT22;3302;52.508;13.454;2022-11-23T09:48:35;3.00;99.90
6538;DHT22;3302;52.508;13.454;2022-11-23T09:51:24;3.10;99.90
6538;DHT22;3302;52.508;13.454;2022-11-23T09:54:01;3.20;99.90
6538;DHT22;3302;52.508;13.454;2022-11-23T09:56:32;3.20;99.90
6538;DHT22;3302;52.508;13.454;2022-11-23T09:59:00;3.30;99.90
6538;DHT22;3302;52.508;13.454;2022-11-23T10:01:27;3.40;99.90
6538;DHT22;3302;52.508;13.454;2022-11-23T10:03:53;3.40;99.90
6538;DHT22;3302;52.508;13.454;2022-11-23T10:06:19;3.40;99.90
6538;DHT22;3302;52.508;13.454;2022-11-23T10:12:02;3.50;99.90
6538;DHT22;3302;52.508;13.454;2022-11-23T10:14:34;3.60;99.90
6538;DHT22;3302;52.508;13.454;2022-11-23T10:23:03;3.80;99.90
6538;DHT22;3302;52.508;13.454;2022-11-23T10:25:39;3.80;99.90
6538;DHT22;3302;52.508;13.454;2022-11-23T10:28:15;3.90;99.90
6538;DHT22;3302;52.508;13.454;2022-11-23T10:30:42;4.00;99.90
6538;DHT22;3302;52.508;13.454;2022-11-23T10:33:25;4.10;99.90
6538;DHT22;3302;52.508;13.454;2022-11-23T10:35:53;4.10;99.90
6538;DHT22;3302;52.508;13.454;2022-11-23T10:38:20;4.10;99.90
6538;DHT22;3302;52.508;13.454;2022-11-23T10:41:02;4.20;99.90
6538;DHT22;3302;52.508;13.454;2022-11-23T10:43:43;4.30;99.90
6538;DHT22;3302;52.508;13.454;2022-11-23T10:49:07;4.40;99.90
6538;DHT22;3302;52.508;13.454;2022-11-23T10:51:34;4.50;99.90
6538;DHT22;3302;52.508;13.454;2022-11-23T10:54:05;4.50;99.90
6538;DHT22;3302;52.508;13.454;2022-11-23T10:56:32;4.60;99.90
6538;DHT22;3302;52.508;13.454;2022-11-23T10:58:58;4.60;99.90
6538;DHT22;3302;52.508;13.454;2022-11-23T11:01:26;4.70;99.90
6538;DHT22;3302;52.508;13.454;2022-11-23T11:03:55;4.70;99.90
6538;DHT22;3302;52.508;13.454;2022-11-23T11:06:30;4.80;99.90
6538;DHT22;3302;52.508;13.454;2022-11-23T11:09:02;4.80;99.90
6538;DHT22;3302;52.508;13.454;2022-11-23T11:11:36;4.80;99.90
6538;DHT22;3302;52.508;13.454;2022-11-23T11:16:48;5.00;99.90
6538;DHT22;3302;52.508;13.454;2022-11-23T11:19:32;5.00;99.90
6538;DHT22;3302;52.508;13.454;2022-11-23T11:22:00;5.10;99.90
6538;DHT22;3302;52.508;13.454;2022-11-23T11:24:37;5.30;99.90
6538;DHT22;3302;52.508;13.454;2022-11-23T11:27:16;5.40;99.90
6538;DHT22;3302;52.508;13.454;2022-11-23T11:32:31;5.30;99.90
6538;DHT22;3302;52.508;13.454;2022-11-23T11:35:22;5.30;99.90
6538;DHT22;3302;52.508;13.454;2022-11-23T11:37:51;5.40;99.90
6538;DHT22;3302;52.508;13.454;2022-11-23T11:40:58;5.40;99.90
6538;DHT22;3302;52.508;13.454;2022-11-23T11:43:41;5.50;99.90
6538;DHT22;3302;52.508;13.454;2022-11-23T11:46:36;5.60;99.90
6538;DHT22;3302;52.508;13.454;2022-11-23T11:49:08;5.60;99.90
6538;DHT22;3302;52.508;13.454;2022-11-23T11:51:43;5.60;99.90
6538;DHT22;3302;52.508;13.454;2022-11-23T11:54:17;5.70;99.90
6538;DHT22;3302;52.508;13.454;2022-11-23T11:56:49;5.80;99.90
6538;DHT22;3302;52.508;13.454;2022-11-23T11:59:35;5.70;99.90
6538;DHT22;3302;52.508;13.454;2022-11-23T12:02:23;5.80;99.90
6538;DHT22;3302;52.508;13.454;2022-11-23T12:04:58;5.80;99.90
6538;DHT22;3302;52.508;13.454;2022-11-23T12:07:31;5.70;99.90
6538;DHT22;3302;52.508;13.454;2022-11-23T12:10:25;5.80;99.90
6538;DHT22;3302;52.508;13.454;2022-11-23T12:12:53;5.80;99.90
6538;DHT22;3302;52.508;13.454;2022-11-23T12:15:29;5.80;99.90
6538;DHT22;3302;52.508;13.454;2022-11-23T12:20:48;5.80;99.90
6538;DHT22;3302;52.508;13.454;2022-11-23T12:31:52;6.00;99.90
6538;DHT22;3302;52.508;13.454;2022-11-23T12:42:53;5.90;99.90
6538;DHT22;3302;52.508;13.454;2022-11-23T12:58:38;6.00;99.90
6538;DHT22;3302;52.508;13.454;2022-11-23T13:01:35;5.90;99.90
6538;DHT22;3302;52.508;13.454;2022-11-23T13:07:58;6.00;99.90
6538;DHT22;3302;52.508;13.454;2022-11-23T13:23:59;6.10;99.90
6538;DHT22;3302;52.508;13.454;2022-11-23T13:26:27;6.10;99.90
6538;DHT22;3302;52.508;13.454;2022-11-23T13:28:54;6.10;99.90
6538;DHT22;3302;52.508;13.454;2022-11-23T13:31:27;6.10;99.90
6538;DHT22;3302;52.508;13.454;2022-11-23T13:34:00;6.10;99.90
6538;DHT22;3302;52.508;13.454;2022-11-23T13:38:59;6.20;99.90
6538;DHT22;3302;52.508;13.454;2022-11-23T13:44:19;6.20;99.90
6538;DHT22;3302;52.508;13.454;2022-11-23T13:47:17;6.20;99.90
6538;DHT22;3302;52.508;13.454;2022-11-23T13:49:48;6.20;99.90
6538;DHT22;3302;52.508;13.454;2022-11-23T13:57:41;6.20;99.90
6538;DHT22;3302;52.508;13.454;2022-11-23T14:03:50;6.20;99.90
6538;DHT22;3302;52.508;13.454;2022-11-23T14:08:48;6.10;99.90
6538;DHT22;3302;52.508;13.454;2022-11-23T14:11:19;6.10;99.90
6538;DHT22;3302;52.508;13.454;2022-11-23T14:14:00;6.20;99.90
6538;DHT22;3302;52.508;13.454;2022-11-23T14:22:21;6.10;99.90
6538;DHT22;3302;52.508;13.454;2022-11-23T14:33:26;6.10;99.90
6538;DHT22;3302;52.508;13.454;2022-11-23T14:38:51;6.00;99.90
6538;DHT22;3302;52.508;13.454;2022-11-23T14:41:21;6.00;99.90
6538;DHT22;3302;52.508;13.454;2022-11-23T14:43:49;5.90;99.90
6538;DHT22;3302;52.508;13.454;2022-11-23T14:46:19;5.80;99.90
6538;DHT22;3302;52.508;13.454;2022-11-23T14:48:46;5.80;99.90
6538;DHT22;3302;52.508;13.454;2022-11-23T14:51:18;5.80;99.90
6538;DHT22;3302;52.508;13.454;2022-11-23T14:53:47;5.70;99.90
6538;DHT22;3302;52.508;13.454;2022-11-23T14:56:32;5.70;99.90
6538;DHT22;3302;52.508;13.454;2022-11-23T14:59:05;5.60;99.90
6538;DHT22;3302;52.508;13.454;2022-11-23T15:01:32;5.60;99.90
6538;DHT22;3302;52.508;13.454;2022-11-23T15:03:59;5.60;99.90
6538;DHT22;3302;52.508;13.454;2022-11-23T15:06:32;5.60;99.90
6538;DHT22;3302;52.508;13.454;2022-11-23T15:09:07;5.50;99.90
6538;DHT22;3302;52.508;13.454;2022-11-23T15:11:40;5.50;99.90
6538;DHT22;3302;52.508;13.454;2022-11-23T15:14:24;5.50;99.90
6538;DHT22;3302;52.508;13.454;2022-11-23T15:16:50;5.50;99.90
6538;DHT22;3302;52.508;13.454;2022-11-23T15:19:27;5.50;99.90
6538;DHT22;3302;52.508;13.454;2022-11-23T15:21:55;5.50;99.90
6538;DHT22;3302;52.508;13.454;2022-11-23T15:24:27;5.40;99.90
6538;DHT22;3302;52.508;13.454;2022-11-23T15:27:02;5.50;99.90
6538;DHT22;3302;52.508;13.454;2022-11-23T15:29:38;5.40;99.90
6538;DHT22;3302;52.508;13.454;2022-11-23T15:32:27;5.40;99.90
6538;DHT22;3302;52.508;13.454;2022-11-23T15:34:55;5.30;99.90
6538;DHT22;3302;52.508;13.454;2022-11-23T15:37:22;5.30;99.90
6538;DHT22;3302;52.508;13.454;2022-11-23T15:39:49;5.20;99.90
6538;DHT22;3302;52.508;13.454;2022-11-23T15:42:21;5.20;99.90
6538;DHT22;3302;52.508;13.454;2022-11-23T15:44:48;5.20;99.90
6538;DHT22;3302;52.508;13.454;2022-11-23T15:47:21;5.00;99.90
6538;DHT22;3302;52.508;13.454;2022-11-23T15:49:48;5.10;99.90
6538;DHT22;3302;52.508;13.454;2022-11-23T15:52:16;5.00;99.90
6538;DHT22;3302;52.508;13.454;2022-11-23T15:54:43;5.00;99.90
6538;DHT22;3302;52.508;13.454;2022-11-23T15:57:20;4.90;99.90
6538;DHT22;3302;52.508;13.454;2022-11-23T15:59:53;4.80;99.90
6538;DHT22;3302;52.508;13.454;2022-11-23T16:02:22;4.80;99.90
6538;DHT22;3302;52.508;13.454;2022-11-23T16:07:29;4.90;99.90
6538;DHT22;3302;52.508;13.454;2022-11-23T16:10:21;4.90;99.90
6538;DHT22;3302;52.508;13.454;2022-11-23T16:12:58;4.90;99.90
6538;DHT22;3302;52.508;13.454;2022-11-23T16:20:58;4.60;99.90
6538;DHT22;3302;52.508;13.454;2022-11-23T16:23:43;4.60;99.90
6538;DHT22;3302;52.508;13.454;2022-11-23T16:26:11;4.70;99.90
6538;DHT22;3302;52.508;13.454;2022-11-23T16:28:39;4.70;99.90
6538;DHT22;3302;52.508;13.454;2022-11-23T16:31:37;4.60;99.90
6538;DHT22;3302;52.508;13.454;2022-11-23T16:34:11;4.50;99.90
6538;DHT22;3302;52.508;13.454;2022-11-23T16:36:38;4.40;99.90
6538;DHT22;3302;52.508;13.454;2022-11-23T16:39:03;4.40;99.90
6538;DHT22;3302;52.508;13.454;2022-11-23T16:41:29;4.40;99.90
6538;DHT22;3302;52.508;13.454;2022-11-23T16:43:55;4.40;99.90
6538;DHT22;3302;52.508;13.454;2022-11-23T16:46:21;4.30;99.90
6538;DHT22;3302;52.508;13.454;2022-11-23T16:48:47;4.20;99.90
6538;DHT22;3302;52.508;13.454;2022-11-23T16:51:12;4.10;99.90
6538;DHT22;3302;52.508;13.454;2022-11-23T16:53:43;4.10;99.90
6538;DHT22;3302;52.508;13.454;2022-11-23T16:56:18;4.10;99.90
6538;DHT22;3302;52.508;13.454;2022-11-23T16:58:45;4.00;99.90
6538;DHT22;3302;52.508;13.454;2022-11-23T17:01:19;4.00;99.90
6538;DHT22;3302;52.508;13.454;2022-11-23T17:03:45;4.00;99.90
6538;DHT22;3302;52.508;13.454;2022-11-23T17:06:13;4.00;99.90
6538;DHT22;3302;52.508;13.454;2022-11-23T17:08:45;4.00;99.90
6538;DHT22;3302;52.508;13.454;2022-11-23T17:11:20;4.00;99.90
6538;DHT22;3302;52.508;13.454;2022-11-23T17:13:48;4.00;99.90
6538;DHT22;3302;52.508;13.454;2022-11-23T17:16:16;4.00;99.90
6538;DHT22;3302;52.508;13.454;2022-11-23T17:18:43;4.10;99.90
6538;DHT22;3302;52.508;13.454;2022-11-23T17:21:09;4.20;99.90
6538;DHT22;3302;52.508;13.454;2022-11-23T17:23:35;4.10;99.90
6538;DHT22;3302;52.508;13.454;2022-11-23T17:26:04;4.20;99.90
6538;DHT22;3302;52.508;13.454;2022-11-23T17:28:30;4.10;99.90
6538;DHT22;3302;52.508;13.454;2022-11-23T17:30:56;4.10;99.90
6538;DHT22;3302;52.508;13.454;2022-11-23T17:33:21;4.00;99.90
6538;DHT22;3302;52.508;13.454;2022-11-23T17:35:47;4.10;99.90
6538;DHT22;3302;52.508;13.454;2022-11-23T17:38:15;4.10;99.90
6538;DHT22;3302;52.508;13.454;2022-11-23T17:40:41;4.10;99.90
6538;DHT22;3302;52.508;13.454;2022-11-23T17:43:12;4.00;99.90
6538;DHT22;3302;52.508;13.454;2022-11-23T17:45:38;3.90;99.90
6538;DHT22;3302;52.508;13.454;2022-11-23T17:48:04;3.70;99.90
6538;DHT22;3302;52.508;13.454;2022-11-23T17:50:30;3.60;99.90
6538;DHT22;3302;52.508;13.454;2022-11-23T17:52:55;3.60;99.90
6538;DHT22;3302;52.508;13.454;2022-11-23T17:55:21;3.60;99.90
6538;DHT22;3302;52.508;13.454;2022-11-23T17:57:47;3.60;99.90
6538;DHT22;3302;52.508;13.454;2022-11-23T18:00:19;3.60;99.90
6538;DHT22;3302;52.508;13.454;2022-11-23T18:02:45;3.50;99.90
6538;DHT22;3302;52.508;13.454;2022-11-23T18:05:11;3.50;99.90
6538;DHT22;3302;52.508;13.454;2022-11-23T18:07:37;3.50;99.90
6538;DHT22;3302;52.508;13.454;2022-11-23T18:10:03;3.40;99.90